Aérodrome :
LOGIN :

S'inscrire | Disclaimer

   EN    FR    IT 

 










Légende :    VFR   VFR Marginal   IFR   IFR Intensif   IFR Très Intensif
Visi : 
Plafond : 
>= 8 km
>= 3000ft
5 à 8 km
1000 à 3000 ft
1500m à 5 km
500 à 1000 ft
800 à 1500m
200 à 500 ft
< 800m
< 200 ft
Symboles :   Orages  Brouillard  Fortes neiges  Fortes précipitations  Vent > 20 kt
SIGMETs :   Divers  Orages  Givrage  Turbulence  Onde Orograph.  Cendres Volcan.






- Altitude de l'aérodrome : 348 ft
- Code IATA : STN


EGSS - London Stansted

DERNIER METAR :
  • 240220Z AUTO 31003KT 1600 BR BKN001 OVC012 05/05 Q1025

METARs EXPIRÉS :
  • 240150Z AUTO 30002KT 1500 BR FEW001 OVC013 05/05 Q1025
  • 240120Z AUTO 27001KT 1800 BR BKN011 OVC017 05/05 Q1025
  • 240050Z AUTO 31001KT 1700 BR OVC011 05/05 Q1025
  • 240020Z AUTO 30002KT 2500 BR OVC012 05/05 Q1026
  • 232350Z AUTO VRB02KT 2700 BR OVC012 06/05 Q1026
  • 232320Z AUTO 01002KT 2100 BR OVC013 05/05 Q1026

TAF AMD TAF EGSS
Valide du 24 à 00h jusqu'au 25 à 06h UTC


240027Z 2400/2506 VRB04KT 2500 BR BKN012
BECMG 2400/2403 BKN003
TEMPO 2400/2411 1200 DZ
PROB40
TEMPO 2400/2411 0300 FG BKN001
TEMPO 2411/2419 BKN006
PROB30
TEMPO 2411/2419 6000 NSW SCT006 BKN015
TEMPO 2419/2503 1200 DZ
PROB40
TEMPO 2419/2503 0300 FG BKN001
BECMG 2503/2506 9999 NSW BKN010
ATIS : +44 1279 669 325



MET'MAP, la Météo Aéronautique d'un coup d'oeil ! - Copyright ORBIFLY Décembre 2007 - Disclaimer

ORBIFLY MET'MAP TEAM :

Programmation & Développement : Alexandra Zaïnal
Sur une idée originale de : Baudouin d'Aumeries
Assistance à la programmation : Marc-Olivier Méhu
Soutien technique & logistique : Manuel Goepfert

Contact : metmap@orbifly.com




SOURCES & CREDITS :

   NOAA